Time;durP1;ratioP1;P1;durP2;ratioP2;P2;SDS_P1;SDS_P2;PMS_P1;PMS_P2;Temp;Humidity;BMP_temperature;BMP_pressure;BME280_temperature;BME280_humidity;BME280_pressure;Samples;Min_cycle;Max_cycle;Signal;HPM_P1;HPM_P2
2022/04/02 00:01:46;;;;;;;2.50;2.40;;;;;;;0.54;75.31;97677.63;4153806;28;20279;-58
2022/04/02 00:03:48;;;;;;;3.30;3.17;;;;;;;0.41;75.59;97669.56;4151702;28;20531;-57
2022/04/02 00:05:50;;;;;;;2.50;2.40;;;;;;;0.43;75.38;97677.44;4151494;28;20614;-57
2022/04/02 00:07:52;;;;;;;2.13;2.10;;;;;;;0.51;75.47;97675.38;4152615;28;20213;-57
2022/04/02 00:09:53;;;;;;;2.27;2.17;;;;;;;0.55;75.63;97676.59;4152671;28;20686;-58
2022/04/02 00:11:55;;;;;;;2.73;2.63;;;;;;;0.52;75.47;97677.03;4150359;28;20225;-58
2022/04/02 00:13:58;;;;;;;4.03;3.83;;;;;;;0.61;75.64;97666.88;4153583;28;20228;-57
2022/04/02 00:16:00;;;;;;;2.57;2.47;;;;;;;0.61;75.30;97674.97;4134983;28;20198;-57
2022/04/02 00:18:02;;;;;;;2.20;2.10;;;;;;;0.63;75.47;97667.50;4138226;28;20209;-58
2022/04/02 00:20:04;;;;;;;2.13;2.03;;;;;;;0.73;75.64;97673.25;4136369;28;20206;-57
2022/04/02 00:22:06;;;;;;;1.70;1.60;;;;;;;0.56;75.31;97670.19;4119328;28;20320;-58
2022/04/02 00:24:08;;;;;;;2.40;2.30;;;;;;;0.51;75.71;97669.16;4150960;28;20213;-58
2022/04/02 00:26:19;;;;;;;2.03;1.93;;;;;;;0.36;76.19;97666.66;4135026;28;20255;-57
2022/04/02 00:28:21;;;;;;;2.43;2.30;;;;;;;0.51;75.95;97678.06;4152383;28;20205;-57
2022/04/02 00:30:23;;;;;;;2.30;2.20;;;;;;;0.45;76.00;97678.91;4133808;28;20687;-58
2022/04/02 00:32:25;;;;;;;5.13;2.87;;;;;;;0.38;76.51;97680.75;4149718;28;20791;-57
2022/04/02 00:34:28;;;;;;;1.97;1.87;;;;;;;0.40;76.47;97672.50;4151535;28;20279;-57
2022/04/02 00:36:34;;;;;;;2.10;2.00;;;;;;;0.32;76.53;97670.81;4153310;28;20688;-58
2022/04/02 00:38:37;;;;;;;2.90;2.80;;;;;;;0.43;76.56;97678.28;4150993;28;20243;-58
2022/04/02 00:40:42;;;;;;;2.23;2.13;;;;;;;0.44;76.34;97677.25;4134239;28;20225;-57
2022/04/02 00:42:45;;;;;;;1.47;1.47;;;;;;;0.47;76.27;97676.00;4153546;28;20641;-58
2022/04/02 00:44:46;;;;;;;2.40;2.30;;;;;;;0.47;76.32;97674.13;4136515;28;20758;-56
2022/04/02 00:46:48;;;;;;;2.23;2.13;;;;;;;0.54;76.25;97669.56;4119454;28;20561;-57
2022/04/02 00:48:50;;;;;;;1.30;1.30;;;;;;;0.52;76.27;97671.66;4136235;28;20209;-57
2022/04/02 00:50:55;;;;;;;1.93;1.93;;;;;;;0.59;75.98;97667.09;4151327;28;20618;-57
2022/04/02 00:52:57;;;;;;;2.67;2.57;;;;;;;0.43;76.57;97667.53;4151553;28;20224;-57
2022/04/02 00:54:58;;;;;;;1.87;1.83;;;;;;;0.42;76.15;97668.53;4135612;28;20659;-57
2022/04/02 00:57:01;;;;;;;2.23;2.13;;;;;;;0.45;76.75;97665.44;4137407;28;20209;-57
2022/04/02 00:59:02;;;;;;;2.20;2.10;;;;;;;0.60;76.66;97663.34;4132156;28;20218;-57
2022/04/02 01:01:06;;;;;;;1.90;1.80;;;;;;;0.67;76.12;97669.56;4133193;28;20772;-57
2022/04/02 01:03:09;;;;;;;1.47;1.47;;;;;;;0.67;75.81;97658.78;4131971;28;20233;-57
2022/04/02 01:05:12;;;;;;;6.50;2.63;;;;;;;0.65;75.72;97665.41;4147859;28;20691;-57
2022/04/02 01:07:16;;;;;;;2.33;2.23;;;;;;;0.57;76.01;97666.47;4150100;28;20200;-57
2022/04/02 01:09:17;;;;;;;2.40;2.30;;;;;;;0.58;75.56;97668.13;4132251;28;20667;-57
2022/04/02 01:11:19;;;;;;;2.33;2.23;;;;;;;0.61;75.99;97669.56;4118458;28;20308;-57
2022/04/02 01:13:22;;;;;;;2.13;2.03;;;;;;;0.65;76.01;97663.56;4134468;28;22013;-58
2022/04/02 01:15:24;;;;;;;1.90;1.80;;;;;;;0.60;75.60;97668.75;4151130;28;20754;-57
2022/04/02 01:17:29;;;;;;;1.90;1.80;;;;;;;0.53;76.16;97661.69;4136848;28;20201;-58
2022/04/02 01:19:32;;;;;;;2.67;2.57;;;;;;;0.65;75.63;97671.63;4149324;28;20271;-57
2022/04/02 01:21:34;;;;;;;2.00;1.93;;;;;;;0.61;75.88;97669.56;4155028;28;20240;-56
2022/04/02 01:23:35;;;;;;;2.00;1.90;;;;;;;0.54;75.85;97669.56;4136354;28;20208;-57
2022/04/02 01:25:37;;;;;;;2.17;2.07;;;;;;;0.61;75.82;97665.00;4151368;28;20239;-57
2022/04/02 01:27:39;;;;;;;3.20;3.00;;;;;;;0.75;75.67;97676.59;4152668;28;20235;-57
2022/04/02 01:29:41;;;;;;;1.70;1.70;;;;;;;0.68;75.91;97681.97;4152526;28;20618;-57
2022/04/02 01:31:44;;;;;;;3.53;3.23;;;;;;;0.59;75.63;97677.84;4138545;28;20206;-57
2022/04/02 01:33:48;;;;;;;1.87;1.77;;;;;;;0.68;75.71;97676.59;4150863;28;20209;-58
2022/04/02 01:36:04;;;;;;;1.80;1.80;;;;;;;0.72;75.48;97672.47;4150948;28;20736;-57
2022/04/02 01:38:05;;;;;;;2.43;2.33;;;;;;;0.70;75.40;97679.09;4151712;28;20240;-57
2022/04/02 01:40:08;;;;;;;1.80;1.80;;;;;;;0.66;75.18;97688.59;4140793;28;20216;-58
2022/04/02 01:42:10;;;;;;;2.03;2.03;;;;;;;0.64;74.98;97685.28;4150147;28;20233;-58
2022/04/02 01:44:11;;;;;;;2.00;1.90;;;;;;;0.69;74.79;97691.69;4151374;28;20625;-58
2022/04/02 01:46:13;;;;;;;2.07;1.97;;;;;;;0.67;75.34;97691.09;4150285;28;20717;-57
2022/04/02 01:48:15;;;;;;;1.80;1.80;;;;;;;0.60;75.53;97689.47;4132814;28;20214;-58
2022/04/02 01:50:23;;;;;;;1.60;1.60;;;;;;;0.55;75.31;97687.38;4135554;28;20241;-57
2022/04/02 01:52:24;;;;;;;1.87;1.87;;;;;;;0.60;75.05;97684.88;4132690;28;20232;-57
2022/04/02 01:54:26;;;;;;;2.50;2.40;;;;;;;0.57;74.97;97689.84;4153307;28;20295;-57
2022/04/02 01:56:28;;;;;;;1.80;1.70;;;;;;;0.54;75.13;97684.91;4152567;28;20205;-57
2022/04/02 01:58:30;;;;;;;1.37;1.37;;;;;;;0.47;74.70;97690.28;4136887;28;20213;-58
2022/04/02 02:00:32;;;;;;;3.53;3.23;;;;;;;0.57;74.99;97696.06;4152979;28;20209;-57
2022/04/02 02:02:34;;;;;;;2.27;2.17;;;;;;;0.59;74.96;97695.84;4150845;28;20286;-56
2022/04/02 02:04:36;;;;;;;1.80;1.77;;;;;;;0.53;75.14;97689.44;4152766;28;20212;-57
2022/04/02 02:06:39;;;;;;;2.33;2.23;;;;;;;0.61;75.21;97689.22;4134353;28;20300;-57
2022/04/02 02:08:40;;;;;;;1.60;1.60;;;;;;;0.51;74.94;97691.53;4150988;28;20200;-58
2022/04/02 02:10:42;;;;;;;1.97;1.87;;;;;;;0.46;74.80;97694.00;4151375;28;20206;-57
2022/04/02 02:12:45;;;;;;;2.13;2.03;;;;;;;0.50;75.09;97694.41;4133714;28;20237;-57
2022/04/02 02:14:47;;;;;;;1.50;1.40;;;;;;;0.50;75.17;97694.41;4152443;28;20271;-57
2022/04/02 02:16:49;;;;;;;1.77;1.67;;;;;;;0.52;75.15;97703.94;4154340;28;20229;-57
2022/04/02 02:18:51;;;;;;;2.40;2.30;;;;;;;0.51;75.06;97696.91;4137206;28;20267;-57
2022/04/02 02:20:53;;;;;;;1.70;1.60;;;;;;;0.48;75.19;97702.69;4151155;28;20707;-57
2022/04/02 02:22:55;;;;;;;2.23;2.17;;;;;;;0.50;75.20;97697.94;4135699;28;20222;-58
2022/04/02 02:24:56;;;;;;;2.07;1.97;;;;;;;0.51;75.26;97702.28;4117236;28;20203;-58
2022/04/02 02:26:58;;;;;;;2.27;2.17;;;;;;;0.39;75.05;97706.63;4134173;28;20244;-57
2022/04/02 02:29:01;;;;;;;2.10;2.00;;;;;;;0.46;75.14;97710.13;4152599;28;20216;-58
2022/04/02 02:31:02;;;;;;;1.83;1.83;;;;;;;0.52;75.28;97714.69;4140259;28;20213;-58
2022/04/02 02:37:45;;;;;;;1.37;1.37;;;;;;;0.56;75.16;97709.72;4134920;28;20272;-58
2022/04/02 02:39:46;;;;;;;2.30;2.10;;;;;;;0.49;75.41;97720.47;4137144;28;20656;-57
2022/04/02 02:41:48;;;;;;;2.63;2.53;;;;;;;0.55;75.16;97716.97;4154705;28;20224;-58
2022/04/02 02:43:50;;;;;;;4.50;1.53;;;;;;;0.56;75.04;97715.91;4151438;28;20236;-58
2022/04/02 02:45:51;;;;;;;2.07;1.97;;;;;;;0.54;75.44;97718.00;4150863;28;20267;-57
2022/04/02 02:47:54;;;;;;;2.27;2.17;;;;;;;0.44;75.22;97722.97;4153804;28;20220;-57
2022/04/02 02:49:55;;;;;;;2.73;2.63;;;;;;;0.59;75.34;97726.28;4137565;28;20205;-58
2022/04/02 02:51:57;;;;;;;2.60;2.50;;;;;;;0.60;75.37;97724.44;4151844;28;20264;-58
2022/04/02 02:53:59;;;;;;;2.17;2.07;;;;;;;0.61;75.27;97729.59;4152560;28;20586;-57
2022/04/02 02:56:01;;;;;;;1.30;1.30;;;;;;;0.58;75.21;97724.63;4140645;28;20564;-57
2022/04/02 02:58:02;;;;;;;2.40;2.30;;;;;;;0.58;75.02;97723.81;4136969;28;20212;-57
2022/04/02 03:00:09;;;;;;;2.00;1.90;;;;;;;0.57;75.25;97731.06;4150550;28;20201;-57
2022/04/02 03:02:11;;;;;;;2.37;2.27;;;;;;;0.59;75.44;97731.66;4140167;28;20273;-57
2022/04/02 03:04:13;;;;;;;2.30;2.20;;;;;;;0.57;74.95;97727.53;4136208;28;20217;-57
2022/04/02 03:06:15;;;;;;;1.93;1.90;;;;;;;0.49;75.05;97733.94;4140459;28;20209;-57
2022/04/02 03:08:20;;;;;;;2.37;2.27;;;;;;;0.48;75.26;97734.16;4138487;28;20259;-57
2022/04/02 03:10:23;;;;;;;1.40;1.40;;;;;;;0.56;75.21;97728.56;4123333;28;20695;-57
2022/04/02 03:12:25;;;;;;;2.60;1.90;;;;;;;0.45;75.68;97740.78;4153359;28;20221;-56
2022/04/02 03:14:27;;;;;;;1.77;1.67;;;;;;;0.49;75.81;97736.63;4149665;28;20205;-56
2022/04/02 03:16:28;;;;;;;2.23;2.13;;;;;;;0.53;75.19;97740.56;4136482;28;20573;-57
2022/04/02 03:18:30;;;;;;;3.90;2.90;;;;;;;0.56;75.60;97742.84;4137818;28;20638;-56
2022/04/02 03:20:33;;;;;;;2.07;1.97;;;;;;;0.53;75.32;97742.41;4153621;28;20227;-57
2022/04/02 03:22:39;;;;;;;1.37;1.37;;;;;;;0.47;75.41;97748.66;4152835;28;20275;-56
2022/04/02 03:24:41;;;;;;;2.13;2.03;;;;;;;0.52;75.51;97743.47;4151625;28;20201;-57
2022/04/02 03:26:42;;;;;;;2.00;1.90;;;;;;;0.54;75.56;97749.47;4137699;28;20557;-57
2022/04/02 03:28:46;;;;;;;1.50;1.50;;;;;;;0.43;75.85;97753.63;4153485;28;20244;-57
2022/04/02 03:30:47;;;;;;;1.60;1.50;;;;;;;0.47;75.81;97754.84;4152519;28;20217;-56
2022/04/02 03:32:51;;;;;;;2.40;2.30;;;;;;;0.46;76.12;97757.72;4135987;28;20727;-56
2022/04/02 03:34:53;;;;;;;1.50;1.47;;;;;;;0.37;75.71;97749.06;4135498;28;20252;-56
2022/04/02 03:36:55;;;;;;;2.03;1.93;;;;;;;0.42;76.08;97761.88;4151461;28;20582;-57
2022/04/02 03:38:57;;;;;;;1.90;1.80;;;;;;;0.44;75.99;97759.81;4135201;28;20771;-56
2022/04/02 03:40:58;;;;;;;1.87;1.87;;;;;;;0.44;75.80;97766.03;4153748;28;20353;-56
2022/04/02 03:43:00;;;;;;;2.37;2.27;;;;;;;0.38;75.48;97756.09;4137438;28;20230;-57
2022/04/02 03:45:04;;;;;;;2.03;1.93;;;;;;;0.36;75.99;97768.88;4135851;28;20199;-57
2022/04/02 03:47:08;;;;;;;2.53;2.43;;;;;;;0.37;76.02;97759.81;4154330;28;20237;-56
2022/04/02 03:49:13;;;;;;;2.17;2.07;;;;;;;0.30;76.14;97758.97;4154422;28;20240;-57
2022/04/02 03:51:15;;;;;;;1.77;1.67;;;;;;;0.23;76.33;97768.91;4154263;28;20205;-57
2022/04/02 03:53:20;;;;;;;2.07;1.97;;;;;;;0.23;76.10;97768.06;4137757;28;20688;-57
2022/04/02 03:55:22;;;;;;;1.50;1.50;;;;;;;0.32;76.00;97761.44;4149839;28;20229;-57
2022/04/02 03:57:23;;;;;;;1.93;1.83;;;;;;;0.28;75.94;97761.03;4154823;28;20212;-57
2022/04/02 03:59:25;;;;;;;1.80;1.70;;;;;;;0.36;76.06;97768.88;4151314;28;20210;-58
2022/04/02 04:01:27;;;;;;;2.07;1.97;;;;;;;0.36;75.82;97768.88;4133930;28;20257;-58
2022/04/02 04:03:29;;;;;;;1.50;1.40;;;;;;;0.38;76.00;97760.63;4136162;28;20298;-58
2022/04/02 04:05:31;;;;;;;1.60;1.60;;;;;;;0.25;76.00;97766.81;4119795;28;20572;-57
2022/04/02 04:07:32;;;;;;;2.00;2.00;;;;;;;0.30;75.96;97769.72;4137580;28;20659;-57
2022/04/02 04:09:36;;;;;;;2.40;2.30;;;;;;;0.36;75.95;97771.59;4152303;28;20209;-58
2022/04/02 04:11:38;;;;;;;1.70;1.70;;;;;;;0.38;75.70;97783.00;4152229;28;20205;-58
2022/04/02 04:13:40;;;;;;;1.73;1.73;;;;;;;0.33;75.63;97774.69;4153776;28;20745;-58
2022/04/02 04:15:42;;;;;;;2.17;2.07;;;;;;;0.36;76.29;97776.97;4153166;28;20228;-58
2022/04/02 04:17:47;;;;;;;2.00;1.90;;;;;;;0.28;75.93;97770.97;4151194;28;20717;-58
2022/04/02 04:19:50;;;;;;;1.70;1.70;;;;;;;0.27;76.08;97780.88;4151571;28;20274;-58
2022/04/02 04:21:53;;;;;;;1.77;1.67;;;;;;;0.33;76.15;97780.06;4150865;28;20232;-58
2022/04/02 04:23:55;;;;;;;1.60;1.50;;;;;;;0.28;76.19;97779.84;4154066;28;20287;-57
2022/04/02 04:25:58;;;;;;;1.83;1.73;;;;;;;0.21;76.40;97775.50;4153965;28;20197;-57
2022/04/02 04:28:01;;;;;;;2.27;2.07;;;;;;;0.28;76.21;97779.84;4136771;28;20209;-57
2022/04/02 04:30:04;;;;;;;8.97;2.47;;;;;;;0.34;75.70;97787.09;4136280;28;20810;-58
2022/04/02 04:32:06;;;;;;;1.83;1.83;;;;;;;0.35;75.82;97786.06;4154516;28;20286;-56
2022/04/02 04:34:08;;;;;;;1.47;1.47;;;;;;;0.37;75.89;97789.41;4138355;28;20284;-56
2022/04/02 04:36:10;;;;;;;1.90;1.80;;;;;;;0.34;75.45;97795.19;4149585;28;20222;-56
2022/04/02 04:38:13;;;;;;;2.17;2.07;;;;;;;0.48;75.60;97798.75;4138832;28;20217;-57
2022/04/02 04:40:15;;;;;;;2.40;2.30;;;;;;;0.38;75.57;97801.81;4156090;28;20220;-56
2022/04/02 04:42:16;;;;;;;1.70;1.60;;;;;;;0.38;75.73;97799.13;4138807;28;20849;-56
2022/04/02 04:44:18;;;;;;;1.60;1.53;;;;;;;0.40;75.55;97802.44;4137212;28;20708;-57
2022/04/02 04:46:21;;;;;;;1.83;1.80;;;;;;;0.33;75.49;97796.22;4152298;28;20691;-56
2022/04/02 04:48:23;;;;;;;1.73;1.67;;;;;;;0.31;75.58;97803.66;4135802;28;20213;-56
2022/04/02 04:50:26;;;;;;;2.17;2.07;;;;;;;0.24;75.82;97821.66;4151247;28;20271;-58
2022/04/02 04:52:28;;;;;;;2.30;2.20;;;;;;;0.16;76.00;97821.81;4151659;28;20228;-56
2022/04/02 04:54:30;;;;;;;2.17;2.00;;;;;;;0.27;75.55;97815.84;4134629;28;20213;-56
2022/04/02 04:56:32;;;;;;;1.20;1.20;;;;;;;0.30;75.66;97822.69;4135202;28;20271;-56
2022/04/02 04:58:34;;;;;;;1.90;1.90;;;;;;;0.31;75.62;97810.91;4133262;28;20280;-58
2022/04/02 05:00:36;;;;;;;2.37;2.27;;;;;;;0.37;75.16;97826.22;4152018;28;20299;-56
2022/04/02 05:02:39;;;;;;;2.67;2.57;;;;;;;0.27;75.60;97829.31;4151393;28;20241;-56
2022/04/02 05:04:40;;;;;;;2.57;2.40;;;;;;;0.20;75.58;97830.34;4152859;28;20282;-56
2022/04/02 05:06:42;;;;;;;1.77;1.67;;;;;;;0.07;75.90;97823.03;4150516;28;20230;-55
2022/04/02 05:08:44;;;;;;;2.03;1.93;;;;;;;0.18;75.78;97838.59;4151698;28;20228;-57
2022/04/02 05:10:46;;;;;;;1.67;1.60;;;;;;;0.04;76.17;97834.19;4142154;28;20205;-56
2022/04/02 05:12:47;;;;;;;2.00;1.90;;;;;;;0.18;76.22;97840.44;4134455;28;20593;-56
2022/04/02 05:14:49;;;;;;;2.23;2.13;;;;;;;0.14;75.56;97844.59;4132851;28;20209;-56
2022/04/02 05:16:52;;;;;;;1.97;1.80;;;;;;;0.06;75.69;97845.56;4135108;28;20225;-58
2022/04/02 05:18:54;;;;;;;2.20;2.10;;;;;;;0.15;75.54;97846.25;4151830;28;20208;-57
2022/04/02 05:20:56;;;;;;;1.80;1.70;;;;;;;0.23;75.38;97848.75;4150699;28;20205;-57
2022/04/02 05:22:58;;;;;;;2.20;2.20;;;;;;;0.33;75.13;97846.47;4135888;28;20233;-57
2022/04/02 05:25:00;;;;;;;2.53;2.43;;;;;;;0.14;75.46;97848.09;4150872;28;20217;-57
2022/04/02 05:27:01;;;;;;;2.30;2.20;;;;;;;0.09;75.37;97845.16;4152979;28;20232;-58
2022/04/02 05:29:03;;;;;;;2.40;2.30;;;;;;;0.16;75.81;97855.97;4136018;28;20762;-57
2022/04/02 05:31:11;;;;;;;2.37;2.27;;;;;;;0.16;75.67;97854.06;4135463;28;20254;-57
2022/04/02 05:33:13;;;;;;;2.47;2.37;;;;;;;0.11;75.56;97856.56;4135364;28;20284;-57
2022/04/02 05:35:35;;;;;;;1.60;1.60;;;;;;;0.10;75.57;97865.66;4147612;28;20706;-57
2022/04/02 05:37:46;;;;;;;1.90;1.80;;;;;;;0.24;75.74;97872.75;4152323;28;20220;-57
2022/04/02 05:39:47;;;;;;;3.07;2.93;;;;;;;0.05;75.49;97872.66;4136773;28;20744;-58
2022/04/02 05:41:51;;;;;;;2.43;2.30;;;;;;;0.19;75.61;97871.69;4151308;28;20229;-58
2022/04/02 05:43:52;;;;;;;1.90;1.90;;;;;;;0.20;75.30;97876.06;4134408;28;20251;-58
2022/04/02 05:45:54;;;;;;;1.63;1.63;;;;;;;0.18;75.40;97872.72;4151307;28;20657;-58
2022/04/02 05:47:56;;;;;;;1.87;1.77;;;;;;;0.23;75.32;97881.00;4152140;28;20256;-57
2022/04/02 05:49:58;;;;;;;2.63;2.53;;;;;;;0.17;75.24;97888.03;4152801;28;20243;-57
2022/04/02 05:52:19;;;;;;;2.00;2.00;;;;;;;0.22;75.08;97888.25;4146592;28;20225;-57
2022/04/02 05:54:21;;;;;;;1.93;1.83;;;;;;;0.20;75.06;97882.25;4133974;28;20216;-56
2022/04/02 05:56:23;;;;;;;1.73;1.73;;;;;;;0.20;74.74;97897.56;4154521;28;20307;-57
2022/04/02 05:58:25;;;;;;;1.83;1.73;;;;;;;0.20;75.17;97898.38;4152971;28;20205;-57
2022/04/02 06:00:27;;;;;;;2.50;2.40;;;;;;;0.23;74.99;97903.38;4134130;28;20651;-57
2022/04/02 06:02:37;;;;;;;2.37;2.27;;;;;;;0.24;74.76;97905.03;4154158;28;20217;-57
2022/04/02 06:04:39;;;;;;;2.17;2.07;;;;;;;0.27;74.28;97899.22;4154976;28;20294;-57
2022/04/02 06:06:41;;;;;;;2.07;1.97;;;;;;;0.12;74.67;97906.63;4137556;28;20202;-57
2022/04/02 06:08:42;;;;;;;2.20;2.10;;;;;;;0.21;74.72;97910.78;4153585;28;20747;-57
2022/04/02 06:10:45;;;;;;;1.53;1.53;;;;;;;0.21;74.58;97915.38;4152131;28;20545;-57
2022/04/02 06:12:50;;;;;;;2.63;2.53;;;;;;;0.35;74.57;97917.06;4140637;28;20233;-58
2022/04/02 06:14:52;;;;;;;2.03;1.93;;;;;;;0.27;74.58;97918.06;4138038;28;20214;-58
2022/04/02 06:16:53;;;;;;;2.30;2.20;;;;;;;0.22;74.10;97917.81;4138554;28;20233;-58
2022/04/02 06:18:55;;;;;;;2.13;2.10;;;;;;;0.19;74.29;97929.00;4140523;28;20264;-57
2022/04/02 06:20:57;;;;;;;1.87;1.87;;;;;;;0.11;74.91;97928.34;4138359;28;20217;-58
2022/04/02 06:22:59;;;;;;;1.50;1.50;;;;;;;0.01;75.11;97926.00;4121466;28;20269;-58
2022/04/02 06:25:02;;;;;;;2.53;2.43;;;;;;;0.06;75.37;97933.47;4152540;28;20578;-57
2022/04/02 06:27:04;;;;;;;2.00;1.90;;;;;;;0.02;75.14;97933.03;4153943;28;20216;-57
2022/04/02 06:29:06;;;;;;;2.30;2.20;;;;;;;0.02;75.15;97943.78;4139667;28;20224;-57
2022/04/02 06:31:08;;;;;;;2.03;1.93;;;;;;;-0.07;75.53;97944.16;4140819;28;20217;-59
2022/04/02 06:33:10;;;;;;;1.97;1.87;;;;;;;-0.03;75.27;97940.88;4154239;28;20263;-58
2022/04/02 06:35:12;;;;;;;2.50;2.40;;;;;;;0.01;75.36;97942.13;4137721;28;20260;-58
2022/04/02 06:37:14;;;;;;;2.27;2.17;;;;;;;0.05;75.10;97943.41;4136582;28;20229;-58
2022/04/02 06:39:16;;;;;;;2.30;2.20;;;;;;;0.12;75.25;97952.34;4138017;28;20206;-57
2022/04/02 06:41:17;;;;;;;1.73;1.73;;;;;;;0.14;75.31;97958.34;4153444;28;20208;-58
2022/04/02 06:43:20;;;;;;;2.10;2.00;;;;;;;0.04;75.45;97952.50;4142405;28;20233;-57
2022/04/02 06:45:22;;;;;;;2.13;2.03;;;;;;;0.10;75.60;97962.47;4154210;28;20220;-58
2022/04/02 06:47:28;;;;;;;1.90;1.80;;;;;;;0.31;75.19;97962.38;4152941;28;20209;-57
2022/04/02 06:49:29;;;;;;;2.10;2.00;;;;;;;0.10;75.25;97962.47;4156050;28;20211;-59
2022/04/02 06:51:31;;;;;;;2.20;2.10;;;;;;;0.17;74.82;97967.88;4137516;28;20702;-58
2022/04/02 06:53:34;;;;;;;2.83;2.67;;;;;;;0.08;74.59;97969.88;4153484;28;20202;-55
2022/04/02 06:55:35;;;;;;;1.97;1.97;;;;;;;0.11;74.66;97968.66;4154670;28;20760;-58
2022/04/02 06:57:46;;;;;;;2.83;2.73;;;;;;;0.04;74.75;97967.81;4138951;28;20229;-58
2022/04/02 06:59:48;;;;;;;2.60;2.50;;;;;;;0.09;74.86;97979.63;4138790;28;20205;-58
2022/04/02 07:01:50;;;;;;;2.73;2.60;;;;;;;0.11;75.13;97980.28;4155436;28;20241;-57
2022/04/02 07:03:52;;;;;;;2.23;2.03;;;;;;;0.29;74.60;97977.88;4156056;28;20204;-57
2022/04/02 07:05:54;;;;;;;1.97;1.97;;;;;;;0.32;75.02;97982.88;4156909;28;20236;-57
2022/04/02 07:07:56;;;;;;;2.13;2.03;;;;;;;0.25;74.74;97987.38;4136153;28;20255;-58
2022/04/02 07:09:58;;;;;;;1.77;1.73;;;;;;;0.10;75.07;97984.00;4157938;28;20216;-58
2022/04/02 07:11:59;;;;;;;1.37;1.37;;;;;;;0.04;75.73;97982.09;4135619;28;20229;-58
2022/04/02 07:14:01;;;;;;;2.17;2.13;;;;;;;0.02;75.80;97981.44;4139954;28;20549;-58
2022/04/02 07:16:03;;;;;;;2.53;2.43;;;;;;;0.06;75.74;97988.09;4135435;28;20225;-58
2022/04/02 07:18:10;;;;;;;3.07;2.97;;;;;;;0.24;76.37;97996.47;4134037;28;20198;-57
2022/04/02 07:20:12;;;;;;;2.60;2.50;;;;;;;0.41;75.51;98003.19;4125631;28;20313;-58
2022/04/02 07:22:18;;;;;;;2.40;2.30;;;;;;;0.31;75.86;97997.34;4154308;28;20232;-59
2022/04/02 07:24:20;;;;;;;1.90;1.80;;;;;;;0.45;75.36;98004.47;4153978;28;20266;-58
2022/04/02 07:26:22;;;;;;;1.40;1.40;;;;;;;0.58;75.19;98004.53;4136810;28;20579;-58
2022/04/02 07:28:25;;;;;;;2.70;2.53;;;;;;;0.62;75.03;98010.34;4152567;28;20271;-58
2022/04/02 07:30:27;;;;;;;1.93;1.93;;;;;;;0.65;74.95;98007.22;4139014;28;20261;-57
2022/04/02 07:32:29;;;;;;;1.90;1.80;;;;;;;0.51;74.46;98019.81;4120790;28;20230;-58
2022/04/02 07:34:31;;;;;;;1.80;1.80;;;;;;;0.58;74.68;98015.28;4153430;28;20732;-58
2022/04/02 07:36:50;;;;;;;2.13;2.07;;;;;;;0.53;73.98;98023.13;4150610;28;20221;-58
2022/04/02 07:39:32;;;;;;;2.50;2.40;;;;;;;0.61;74.28;98025.63;4138829;28;20208;-58
2022/04/02 07:41:42;;;;;;;1.37;1.37;;;;;;;0.56;74.14;98021.91;4124147;28;21024;-58
2022/04/02 07:44:03;;;;;;;1.87;1.77;;;;;;;0.56;73.88;98028.09;4122059;28;20581;-58
2022/04/02 07:46:06;;;;;;;2.10;2.00;;;;;;;0.54;74.18;98043.63;4150953;28;20205;-58
2022/04/02 07:48:10;;;;;;;1.70;1.70;;;;;;;0.40;74.45;98041.88;4154459;28;20686;-57
2022/04/02 07:50:13;;;;;;;2.30;2.20;;;;;;;0.43;73.86;98044.19;4137680;28;20210;-57
2022/04/02 07:52:15;;;;;;;1.70;1.60;;;;;;;0.37;74.11;98045.00;4132464;28;20312;-58
2022/04/02 07:54:17;;;;;;;2.03;1.93;;;;;;;0.46;74.78;98051.00;4134727;28;20265;-58
2022/04/02 07:56:30;;;;;;;4.77;3.93;;;;;;;0.23;74.51;98055.84;4137165;28;20245;-58
2022/04/02 07:58:34;;;;;;;1.77;1.77;;;;;;;0.51;74.40;98059.34;4151577;28;20245;-59
2022/04/02 08:00:36;;;;;;;2.00;1.90;;;;;;;0.64;74.42;98060.25;4119907;28;20630;-58
2022/04/02 08:02:42;;;;;;;2.33;2.23;;;;;;;0.66;74.20;98060.88;4151514;28;20260;-59
2022/04/02 08:04:45;;;;;;;3.00;2.70;;;;;;;0.93;73.88;98068.03;4149776;28;20210;-61
2022/04/02 08:06:49;;;;;;;1.80;1.70;;;;;;;0.65;73.48;98069.97;4135439;28;20264;-59
2022/04/02 08:08:51;;;;;;;1.63;1.63;;;;;;;0.79;73.13;98066.31;4149224;28;20559;-59
2022/04/02 08:10:54;;;;;;;2.00;1.90;;;;;;;0.62;72.97;98064.97;4131707;28;20240;-56
2022/04/02 08:12:57;;;;;;;2.50;2.40;;;;;;;0.77;73.22;98073.78;4150769;28;20275;-57
2022/04/02 08:14:59;;;;;;;3.17;2.93;;;;;;;0.52;73.00;98072.59;4147084;28;20648;-58
2022/04/02 08:17:13;;;;;;;1.93;1.90;;;;;;;0.41;73.00;98078.53;4150087;28;20264;-53
2022/04/02 08:19:23;;;;;;;2.00;1.80;;;;;;;0.64;73.92;98083.63;4138858;28;20208;-54
2022/04/02 08:21:25;;;;;;;2.43;2.33;;;;;;;0.67;73.78;98076.00;4122087;28;20206;-53
2022/04/02 08:23:29;;;;;;;1.80;1.80;;;;;;;0.57;73.00;98074.69;4152858;28;20236;-53
2022/04/02 08:25:34;;;;;;;2.17;2.07;;;;;;;0.70;73.17;98090.91;4152602;28;20259;-54
2022/04/02 08:28:13;;;;;;;1.43;1.43;;;;;;;0.78;73.34;98086.22;4133400;28;20260;-54
2022/04/02 08:30:18;;;;;;;2.67;2.57;;;;;;;0.78;73.25;98086.22;4117551;28;20248;-53
2022/04/02 08:32:29;;;;;;;1.83;1.83;;;;;;;0.86;73.46;98094.13;4136002;28;20225;-53
2022/04/02 08:34:52;;;;;;;2.00;1.90;;;;;;;0.89;72.97;98099.09;4151938;28;20197;-53
2022/04/02 08:37:02;;;;;;;2.27;2.17;;;;;;;0.85;72.67;98107.75;4155231;28;20226;-53
2022/04/02 08:39:26;;;;;;;2.47;2.37;;;;;;;0.74;73.12;98106.47;4152388;28;20416;-54
2022/04/02 08:41:37;;;;;;;9.93;2.17;;;;;;;0.63;73.25;98093.59;4135213;28;20256;-54
2022/04/02 08:44:06;;;;;;;2.10;2.00;;;;;;;0.59;74.01;98108.47;4154359;28;20200;-53
2022/04/02 08:46:34;;;;;;;2.47;2.37;;;;;;;0.68;73.12;98104.56;4154951;28;20200;-52
2022/04/02 08:49:24;;;;;;;2.17;2.07;;;;;;;0.48;73.45;98117.06;4154047;28;20279;-54
2022/04/02 08:51:42;;;;;;;2.57;2.37;;;;;;;0.77;73.88;98119.53;4118376;28;20280;-54
2022/04/02 08:53:44;;;;;;;1.57;1.57;;;;;;;0.83;73.54;98118.75;4137113;28;20325;-53
2022/04/02 08:55:47;;;;;;;2.63;2.53;;;;;;;0.93;73.14;98127.28;4154412;28;20299;-54
2022/04/02 08:57:52;;;;;;;2.30;2.20;;;;;;;1.07;72.38;98122.81;4155323;28;20611;-54
2022/04/02 09:00:06;;;;;;;2.17;2.07;;;;;;;0.64;72.82;98127.53;4138211;28;20719;-53
2022/04/02 09:02:29;;;;;;;2.57;2.47;;;;;;;0.88;73.21;98140.50;4154278;28;20568;-54
2022/04/02 09:04:59;;;;;;;1.90;1.80;;;;;;;0.76;72.95;98134.03;4151400;28;20204;-55
2022/04/02 09:07:40;;;;;;;2.30;2.20;;;;;;;0.92;73.23;98147.19;4152777;28;20212;-52
2022/04/02 09:10:19;;;;;;;2.60;2.50;;;;;;;0.68;73.56;98144.94;4136691;28;20950;-54
2022/04/02 09:12:35;;;;;;;2.07;1.97;;;;;;;0.98;73.41;98154.47;4151808;28;20306;-54
2022/04/02 09:14:51;;;;;;;2.67;2.57;;;;;;;1.22;73.22;98159.34;4136237;28;20194;-53
2022/04/02 09:17:00;;;;;;;1.70;1.60;;;;;;;1.18;72.19;98162.63;4137181;28;20255;-55
2022/04/02 09:19:40;;;;;;;1.57;1.47;;;;;;;1.05;72.21;98152.63;4152863;28;20220;-51
2022/04/02 09:22:03;;;;;;;1.80;1.77;;;;;;;0.97;71.69;98154.66;4134951;28;20216;-53
2022/04/02 09:24:14;;;;;;;1.73;1.70;;;;;;;0.93;72.29;98159.59;4152706;28;20232;-53
2022/04/02 09:26:37;;;;;;;1.70;1.70;;;;;;;1.09;71.98;98159.25;4136158;28;20227;-54
2022/04/02 09:29:13;;;;;;;2.03;1.93;;;;;;;1.42;72.10;98160.25;4137524;28;20660;-55
2022/04/02 09:31:24;;;;;;;1.67;1.67;;;;;;;1.66;71.68;98166.97;4149843;28;20204;-53
2022/04/02 09:34:00;;;;;;;1.70;1.70;;;;;;;1.70;71.07;98174.47;4138184;28;20243;-60
2022/04/02 09:36:39;;;;;;;1.80;1.70;;;;;;;1.69;71.14;98174.66;4155207;28;20661;-51
2022/04/02 09:39:03;;;;;;;1.50;1.50;;;;;;;1.61;70.90;98180.25;4158773;28;20291;-55
2022/04/02 09:41:27;;;;;;;1.45;1.45;;;;;;;1.68;71.73;98184.59;4141100;28;20237;-54
2022/04/02 09:43:31;;;;;;;1.58;1.58;;;;;;;1.71;70.81;98181.53;4155368;28;20661;-54
2022/04/02 09:45:44;;;;;;;2.03;1.92;;;;;;;1.71;71.06;98192.31;4154458;28;21032;-55
2022/04/02 09:48:10;;;;;;;1.90;1.80;;;;;;;1.61;70.37;98191.84;4139502;28;20203;-53
2022/04/02 09:50:17;;;;;;;2.10;2.00;;;;;;;1.66;70.29;98183.16;4140578;28;20210;-55
2022/04/02 09:52:22;;;;;;;1.50;1.50;;;;;;;1.49;70.02;98193.44;4156272;28;20925;-53
2022/04/02 09:54:34;;;;;;;1.88;1.77;;;;;;;1.50;71.03;98195.13;4157115;28;20208;-52
2022/04/02 09:56:39;;;;;;;1.85;1.75;;;;;;;1.41;70.80;98193.63;4156589;28;20232;-54
2022/04/02 09:58:53;;;;;;;2.05;1.95;;;;;;;1.57;71.22;98190.59;4140927;28;20985;-54
2022/04/02 10:01:13;;;;;;;1.95;1.95;;;;;;;1.58;70.64;98197.66;4155558;28;20197;-55
2022/04/02 10:03:23;;;;;;;1.83;1.73;;;;;;;1.61;70.71;98202.63;4140153;28;20301;-55